Waunakee, WI (53597)

9:58 PM CDT on October 01, 2014 (GMT -0500)
Westport | Change Station
CLOSE
Current Station
Personal Weather Station
Location: Waunakee, WI
Elevation: 873 ft
Nearby Weather Stations

Elev 873 ft 43.16 °N, 89.42 °W | Updated 8 seconds ago

Overcast
Overcast
60.7 °F
Feels Like 60.7 °F
N
0.0
Wind Variable Wind from SE
Gusts 4.0 mph

Today
High -- | Low -- °F
--% Chance of Precip.
Yesterday
High -- | Low -- °F
Precip. -- in
6:55 AM 6:39 PM
First Quarter, 54% visible
Pressure 29.88 in
Visibility 10.0 miles
Clouds Mostly Cloudy 5000 ft
Overcast 6500 ft
Dew Point 55 °F
Humidity 81%
Rainfall 0.00 in
Snow Depth Not available.
UV 0.0 out of 12
Pollen 3.00 out of 12
Ozone Good
PM2.5 Good
Flu Activity Not available.
METAR KC29 020235Z AUTO 13006KT 10SM BKN050 OVC065 17/12 A2988 RMK AO1 T01710119

More Conditions Fewer Conditions

Pressure 29.88 in
Visibility 10.0 miles
Clouds Mostly Cloudy 5000 ft
Overcast 6500 ft
Dew Point 55 °F
Humidity 81%
Rainfall 0.00 in
Snow Depth Not available.
UV 0.0 out of 12
Pollen 3.00 out of 12
Ozone Good
PM2.5 Good
Flu Activity Not available.
METAR KC29 020235Z AUTO 13006KT 10SM BKN050 OVC065 17/12 A2988 RMK AO1 T01710119

More Conditions Fewer Conditions

10-Day Weather Forecast

Almanac

Astronomy

Oct. 01, 2014 Rise Set
Actual Time 6:55 AM CDT 6:39 PM CDT
Civil Twilight 6:26 AM CDT 7:07 PM CDT
Nautical Twilight 5:53 AM CDT 7:40 PM CDT
Astronomical Twilight 5:20 AM CDT 8:13 PM CDT
Moon 2:03 PM CDT (10/1) No Moon Set
Length of Visible Light 12h 40m
Length of Day
11h 43m
Tomorrow will be 2m 55s shorter.
First Quarter, 54% of the Moon is Illuminated
Today
First Quarter
Oct 8
Full
Oct 15
Last Quarter
Oct 23
New
Oct 30
First Quarter

Today's Extremes

State Highs State Lows

Community

WunderPhotos

Upload Photos

1,758,154 photos uploaded!

WunderBlogs® & News

Nearby

Air Quality

  Air Quality AQ Index Pollutant
Yesterday Good
OZONE
Yesterday Good
PM2.5
Current Good
PM2.5
Current Good
OZONE
Wednesday Good
OZONE
Wednesday Good
PM2.5
Thursday Good
OZONE
Thursday Good
PM2.5
Friday Good
OZONE
Friday Good
PM2.5
Saturday Good
OZONE
Saturday Good
PM2.5
Sunday Good
OZONE
Sunday Good
PM2.5

Snow Depth

Station Depth Elevation
No new snow has been reported.

Earthquake Activity

City Distance Mag. Time & Date
No recent earthquake activity has been reported nearby.
Minimum magnitude displayed is 2.5.

Coastal Water Temperatures

Place Temperature
No Stations Reporting

Nearby Weather Stations